createdAt,value
2018-02-21T00:00:32.130Z,1.88
2018-02-21T00:01:12.682Z,1.91
2018-02-21T00:01:53.254Z,1.95
2018-02-21T00:02:33.787Z,1.88
2018-02-21T00:03:14.336Z,1.94
2018-02-21T00:03:54.890Z,1.81
2018-02-21T00:04:35.443Z,1.81
2018-02-21T00:05:15.995Z,1.87
2018-02-21T00:05:56.594Z,1.91
2018-02-21T00:06:37.152Z,1.77
2018-02-21T00:07:17.692Z,1.76
2018-02-21T00:07:58.243Z,1.78
2018-02-21T00:08:38.852Z,1.81
2018-02-21T00:09:19.401Z,1.76
2018-02-21T00:09:59.947Z,1.81
2018-02-21T00:10:40.503Z,1.78
2018-02-21T00:11:21.073Z,1.8
2018-02-21T00:12:01.626Z,1.91
2018-02-21T00:12:42.158Z,1.88
2018-02-21T00:13:22.710Z,1.77
2018-02-21T00:14:03.263Z,1.8
2018-02-21T00:14:43.805Z,1.8
2018-02-21T00:15:24.366Z,1.73
2018-02-21T00:16:04.966Z,1.81
2018-02-21T00:16:45.517Z,1.77
2018-02-21T00:17:26.079Z,1.76
2018-02-21T00:18:06.659Z,1.77
2018-02-21T00:18:47.214Z,1.77
2018-02-21T00:19:27.747Z,1.77
2018-02-21T00:20:08.316Z,1.77
2018-02-21T00:20:48.863Z,1.76
2018-02-21T00:21:29.391Z,1.78
2018-02-21T00:22:09.967Z,1.77
2018-02-21T00:22:50.518Z,1.76
2018-02-21T00:23:31.130Z,1.76
2018-02-21T00:24:11.650Z,1.76
2018-02-21T00:24:52.195Z,1.81
2018-02-21T00:25:32.736Z,1.77
2018-02-21T00:26:13.274Z,1.74
2018-02-21T00:26:53.815Z,1.76
2018-02-21T00:27:34.402Z,1.78
2018-02-21T00:28:14.915Z,1.74
2018-02-21T00:28:55.471Z,1.8
2018-02-21T00:29:36.070Z,1.7
2018-02-21T00:30:16.627Z,1.71
2018-02-21T00:30:57.171Z,1.74
2018-02-21T00:31:37.727Z,1.74
2018-02-21T00:32:18.274Z,1.68
2018-02-21T00:32:58.835Z,1.68
2018-02-21T00:33:39.412Z,1.7
2018-02-21T00:34:19.959Z,1.74
2018-02-21T00:35:00.508Z,1.7
2018-02-21T00:35:41.060Z,1.71
2018-02-21T00:36:21.614Z,1.7
2018-02-21T00:37:02.159Z,1.73
2018-02-21T00:37:42.703Z,1.7
2018-02-21T00:38:23.253Z,1.71
2018-02-21T00:39:03.812Z,1.66
2018-02-21T00:39:44.353Z,1.68
2018-02-21T00:40:24.904Z,1.66
2018-02-21T00:41:05.442Z,1.66
2018-02-21T00:41:45.991Z,1.62
2018-02-21T00:42:26.545Z,1.63
2018-02-21T00:43:07.093Z,1.67
2018-02-21T00:43:47.639Z,1.73
2018-02-21T00:44:28.176Z,1.58
2018-02-21T00:45:08.724Z,1.58
2018-02-21T00:45:49.276Z,1.62
2018-02-21T00:46:29.834Z,1.62
2018-02-21T00:47:10.419Z,1.62
2018-02-21T00:47:50.977Z,1.6
2018-02-21T00:48:31.522Z,1.59
2018-02-21T00:49:12.058Z,1.68
2018-02-21T00:49:52.621Z,1.66
2018-02-21T00:50:33.151Z,1.58
2018-02-21T00:51:13.679Z,1.55
2018-02-21T00:51:54.209Z,1.5
2018-02-21T00:52:34.754Z,1.53
2018-02-21T00:53:15.315Z,1.52
2018-02-21T00:53:55.866Z,1.48
2018-02-21T00:54:36.405Z,1.52
2018-02-21T00:55:16.951Z,1.56
2018-02-21T00:55:57.487Z,1.52
2018-02-21T00:56:38.075Z,1.58
2018-02-21T00:57:18.627Z,1.48
2018-02-21T00:57:59.189Z,1.48
2018-02-21T00:58:39.724Z,1.5
2018-02-21T00:59:20.290Z,1.5
2018-02-21T01:00:00.857Z,1.45
2018-02-21T01:00:41.441Z,1.45
2018-02-21T01:01:22.009Z,1.42
2018-02-21T01:02:02.569Z,1.5
2018-02-21T01:02:43.137Z,1.52
2018-02-21T01:03:23.703Z,1.48
2018-02-21T01:04:04.259Z,1.52
2018-02-21T01:04:44.841Z,1.52
2018-02-21T01:05:25.392Z,1.45
2018-02-21T01:06:05.944Z,1.45
2018-02-21T01:06:46.497Z,1.49
2018-02-21T01:07:27.043Z,1.49
2018-02-21T01:08:07.611Z,1.38
2018-02-21T01:08:48.152Z,1.41
2018-02-21T01:09:28.703Z,1.45
2018-02-21T01:10:09.260Z,1.41
2018-02-21T01:10:49.809Z,1.4
2018-02-21T01:11:30.361Z,1.38
2018-02-21T01:12:10.957Z,1.44
2018-02-21T01:12:51.536Z,1.42
2018-02-21T01:13:32.064Z,1.38
2018-02-21T01:14:12.609Z,1.48
2018-02-21T01:14:53.180Z,1.48
2018-02-21T01:15:33.735Z,1.42
2018-02-21T01:16:14.282Z,1.4
2018-02-21T01:16:54.893Z,1.4
2018-02-21T01:17:35.473Z,1.4
2018-02-21T01:18:16.025Z,1.42
2018-02-21T01:18:56.587Z,1.44
2018-02-21T01:19:37.131Z,1.48
2018-02-21T01:20:17.699Z,1.41
2018-02-21T01:20:58.249Z,1.42
2018-02-21T01:21:38.794Z,1.44
2018-02-21T01:22:19.388Z,1.42
2018-02-21T01:22:59.880Z,1.42
2018-02-21T01:23:40.460Z,1.38
2018-02-21T01:24:21.016Z,1.44
2018-02-21T01:25:01.581Z,1.31
2018-02-21T01:25:42.153Z,1.3
2018-02-21T01:26:22.707Z,1.42
2018-02-21T01:27:03.261Z,1.24
2018-02-21T01:27:43.875Z,1.38
2018-02-21T01:28:24.454Z,1.31
2018-02-21T01:29:04.993Z,1.26
2018-02-21T01:29:45.558Z,1.31
2018-02-21T01:30:26.093Z,1.34
2018-02-21T01:31:06.668Z,1.31
2018-02-21T01:31:47.225Z,1.34
2018-02-21T01:32:27.779Z,1.38
2018-02-21T01:33:08.340Z,1.3
2018-02-21T01:33:48.898Z,1.38
2018-02-21T01:34:29.451Z,1.28
2018-02-21T01:35:10.040Z,1.32
2018-02-21T01:35:50.599Z,1.37
2018-02-21T01:36:31.152Z,1.31
2018-02-21T01:37:11.708Z,1.37
2018-02-21T01:37:52.277Z,1.4
2018-02-21T01:38:32.827Z,1.4
2018-02-21T01:39:13.386Z,1.26
2018-02-21T01:39:53.929Z,1.38
2018-02-21T01:40:34.483Z,1.37
2018-02-21T01:41:15.034Z,1.34
2018-02-21T01:41:55.597Z,1.31
2018-02-21T01:42:36.156Z,1.31
2018-02-21T01:43:16.769Z,1.32
2018-02-21T01:43:57.287Z,1.28
2018-02-21T01:44:37.843Z,1.26
2018-02-21T01:45:18.399Z,1.28
2018-02-21T01:45:58.929Z,1.26
2018-02-21T01:46:39.486Z,1.19
2018-02-21T01:47:20.039Z,1.3
2018-02-21T01:48:00.587Z,1.23
2018-02-21T01:48:41.161Z,1.26
2018-02-21T01:49:21.709Z,1.19
2018-02-21T01:50:02.267Z,1.23
2018-02-21T01:50:42.813Z,1.2
2018-02-21T01:51:23.362Z,1.24
2018-02-21T01:52:03.959Z,1.16
2018-02-21T01:52:44.520Z,1.26
2018-02-21T01:53:25.084Z,1.3
2018-02-21T01:54:05.646Z,1.26
2018-02-21T01:54:46.198Z,1.26
2018-02-21T01:55:26.770Z,1.3
2018-02-21T01:56:07.308Z,1.23
2018-02-21T01:56:47.872Z,1.17
2018-02-21T01:57:28.417Z,1.3
2018-02-21T01:58:08.983Z,1.19
2018-02-21T01:58:49.526Z,1.17
2018-02-21T01:59:30.190Z,1.28
2018-02-21T02:00:10.699Z,1.16
2018-02-21T02:00:51.304Z,1.2
2018-02-21T02:01:31.853Z,1.2
2018-02-21T02:02:12.416Z,1.24
2018-02-21T02:02:52.976Z,1.19
2018-02-21T02:03:33.539Z,1.26
2018-02-21T02:04:14.102Z,1.23
2018-02-21T02:04:54.642Z,1.2
2018-02-21T02:05:35.212Z,1.19
2018-02-21T02:06:15.757Z,1.19
2018-02-21T02:06:56.306Z,1.2
2018-02-21T02:07:36.863Z,1.26
2018-02-21T02:08:17.429Z,1.2
2018-02-21T02:08:57.979Z,1.26
2018-02-21T02:09:38.534Z,1.13
2018-02-21T02:10:19.158Z,1.26
2018-02-21T02:10:59.719Z,1.23
2018-02-21T02:11:40.259Z,1.26
2018-02-21T02:12:20.818Z,1.24
2018-02-21T02:13:01.390Z,1.16
2018-02-21T02:13:41.943Z,1.22
2018-02-21T02:14:22.495Z,1.19
2018-02-21T02:15:03.057Z,1.24
2018-02-21T02:15:43.591Z,1.24
2018-02-21T02:16:24.170Z,1.22
2018-02-21T02:17:04.719Z,1.2
2018-02-21T02:17:45.281Z,1.23
2018-02-21T02:18:25.858Z,1.19
2018-02-21T02:19:06.419Z,1.26
2018-02-21T02:19:47.002Z,1.22
2018-02-21T02:20:27.560Z,1.22
2018-02-21T02:21:08.114Z,1.23
2018-02-21T02:21:48.657Z,1.24
2018-02-21T02:22:29.231Z,1.28
2018-02-21T02:23:09.791Z,1.22
2018-02-21T02:23:50.344Z,1.2
2018-02-21T02:24:30.888Z,1.16
2018-02-21T02:25:11.435Z,1.23
2018-02-21T02:25:52.032Z,1.19
2018-02-21T02:26:32.606Z,1.23
2018-02-21T02:27:13.184Z,1.22
2018-02-21T02:27:53.721Z,1.2
2018-02-21T02:28:34.243Z,1.2
2018-02-21T02:29:14.868Z,1.13
2018-02-21T02:29:55.402Z,1.17
2018-02-21T02:30:35.954Z,1.2
2018-02-21T02:31:16.571Z,1.12
2018-02-21T02:31:57.168Z,1.19
2018-02-21T02:32:37.670Z,1.12
2018-02-21T02:33:18.224Z,1.2
2018-02-21T02:33:58.771Z,1.13
2018-02-21T02:34:39.320Z,1.16
2018-02-21T02:35:19.871Z,1.14
2018-02-21T02:36:00.421Z,1.16
2018-02-21T02:36:41.018Z,1.2
2018-02-21T02:37:21.560Z,1.19
2018-02-21T02:38:02.124Z,1.12
2018-02-21T02:38:42.673Z,1.17
2018-02-21T02:39:23.224Z,1.2
2018-02-21T02:40:03.777Z,1.16
2018-02-21T02:40:44.320Z,1.14
2018-02-21T02:41:24.913Z,1.06
2018-02-21T02:42:05.451Z,1.1
2018-02-21T02:42:46.012Z,1.17
2018-02-21T02:43:26.636Z,1.12
2018-02-21T02:44:07.210Z,1.06
2018-02-21T02:44:47.762Z,1.06
2018-02-21T02:45:28.333Z,1.05
2018-02-21T02:46:08.878Z,1.12
2018-02-21T02:46:49.434Z,1.2
2018-02-21T02:47:30.035Z,1.14
2018-02-21T02:48:10.591Z,1.08
2018-02-21T02:48:51.167Z,1.04
2018-02-21T02:49:31.725Z,1.1
2018-02-21T02:50:12.287Z,1.05
2018-02-21T02:50:52.843Z,1.06
2018-02-21T02:51:33.401Z,1.1
2018-02-21T02:52:13.981Z,1.06
2018-02-21T02:52:54.604Z,1.08
2018-02-21T02:53:35.106Z,1.06
2018-02-21T02:54:15.688Z,1.13
2018-02-21T02:54:56.251Z,1.08
2018-02-21T02:55:36.847Z,1.04
2018-02-21T02:56:17.410Z,1.08
2018-02-21T02:56:57.974Z,1.04
2018-02-21T02:57:38.516Z,1.04
2018-02-21T02:58:19.066Z,1.02
2018-02-21T02:58:59.646Z,1.12
2018-02-21T02:59:40.178Z,1.1
2018-02-21T03:00:20.742Z,1.06
2018-02-21T03:01:01.334Z,1.05
2018-02-21T03:01:41.910Z,1.05
2018-02-21T03:02:22.476Z,1.1
2018-02-21T03:03:03.016Z,1.02
2018-02-21T03:03:43.554Z,1.12
2018-02-21T03:04:24.104Z,0.98
2018-02-21T03:05:04.673Z,1.06
2018-02-21T03:05:45.237Z,1.08
2018-02-21T03:06:25.794Z,1.06
2018-02-21T03:07:06.342Z,1.08
2018-02-21T03:07:46.905Z,1.05
2018-02-21T03:08:27.454Z,1.02
2018-02-21T03:09:08.016Z,1.12
2018-02-21T03:09:48.578Z,1.08
2018-02-21T03:10:29.147Z,1.06
2018-02-21T03:11:09.712Z,0.96
2018-02-21T03:11:50.299Z,1.02
2018-02-21T03:12:30.849Z,1.04
2018-02-21T03:13:11.411Z,1.01
2018-02-21T03:13:51.951Z,0.98
2018-02-21T03:14:32.494Z,0.95
2018-02-21T03:15:13.062Z,0.98
2018-02-21T03:15:53.615Z,0.94
2018-02-21T03:16:34.187Z,0.95
2018-02-21T03:17:14.710Z,0.95
2018-02-21T03:17:55.270Z,0.99
2018-02-21T03:18:35.820Z,0.99
2018-02-21T03:19:16.363Z,0.99
2018-02-21T03:19:56.906Z,0.99
2018-02-21T03:20:37.487Z,0.96
2018-02-21T03:21:18.030Z,0.99
2018-02-21T03:21:58.592Z,0.98
2018-02-21T03:22:39.216Z,0.94
2018-02-21T03:23:19.713Z,0.99
2018-02-21T03:24:00.264Z,0.99
2018-02-21T03:24:40.821Z,0.98
2018-02-21T03:25:21.364Z,1.01
2018-02-21T03:26:01.919Z,0.99
2018-02-21T03:26:42.459Z,1.01
2018-02-21T03:27:23.003Z,1.08
2018-02-21T03:28:03.551Z,1.1
2018-02-21T03:28:44.108Z,1.1
2018-02-21T03:29:24.652Z,1.01
2018-02-21T03:30:05.193Z,1.13
2018-02-21T03:30:45.749Z,1.12
2018-02-21T03:31:26.283Z,1.06
2018-02-21T03:32:06.823Z,1.06
2018-02-21T03:32:47.400Z,1.06
2018-02-21T03:33:27.932Z,1.05
2018-02-21T03:34:08.480Z,1.06
2018-02-21T03:34:49.033Z,1.14
2018-02-21T03:35:29.762Z,1.04
2018-02-21T03:36:10.322Z,1.1
2018-02-21T03:36:50.886Z,1.05
2018-02-21T03:37:31.544Z,1.1
2018-02-21T03:38:12.119Z,1.04
2018-02-21T03:38:52.713Z,1.08
2018-02-21T03:39:33.272Z,1.04
2018-02-21T03:40:13.847Z,1.01
2018-02-21T03:40:54.395Z,1.06
2018-02-21T03:41:34.959Z,1.04
2018-02-21T03:42:15.502Z,1.01
2018-02-21T03:42:56.046Z,1.08
2018-02-21T03:43:36.622Z,0.98
2018-02-21T03:44:17.156Z,0.99
2018-02-21T03:44:57.719Z,1.01
2018-02-21T03:45:38.260Z,1.1
2018-02-21T03:46:18.808Z,1.06
2018-02-21T03:46:59.540Z,1.06
2018-02-21T03:47:40.091Z,1.1
2018-02-21T03:48:20.667Z,1.12
2018-02-21T03:49:01.217Z,1.05
2018-02-21T03:49:41.766Z,1.12
2018-02-21T03:50:22.330Z,1.08
2018-02-21T03:51:02.915Z,0.99
2018-02-21T03:51:43.443Z,1.02
2018-02-21T03:52:23.997Z,1.06
2018-02-21T03:53:04.592Z,1.05
2018-02-21T03:53:45.155Z,1.06
2018-02-21T03:54:25.726Z,1.05
2018-02-21T03:55:06.396Z,1.02
2018-02-21T03:55:46.923Z,0.98
2018-02-21T03:56:27.490Z,1.01
2018-02-21T03:57:08.041Z,1.01
2018-02-21T03:57:48.585Z,1.01
2018-02-21T03:58:29.147Z,0.99
2018-02-21T03:59:09.689Z,0.99
2018-02-21T03:59:50.260Z,1.04
2018-02-21T04:00:30.813Z,0.95
2018-02-21T04:01:11.421Z,0.99
2018-02-21T04:01:51.909Z,0.92
2018-02-21T04:02:32.463Z,1.02
2018-02-21T04:03:13.016Z,0.95
2018-02-21T04:03:53.561Z,1.08
2018-02-21T04:04:34.121Z,1.02
2018-02-21T04:05:14.663Z,0.99
2018-02-21T04:05:55.216Z,1.04
2018-02-21T04:06:35.791Z,1.06
2018-02-21T04:07:16.347Z,1.02
2018-02-21T04:07:56.903Z,1.06
2018-02-21T04:08:37.444Z,1.12
2018-02-21T04:09:17.993Z,1.13
2018-02-21T04:09:58.548Z,1.05
2018-02-21T04:10:39.072Z,1.08
2018-02-21T04:11:19.629Z,1.17
2018-02-21T04:12:00.181Z,1.14
2018-02-21T04:12:40.723Z,1.1
2018-02-21T04:13:21.271Z,1.12
2018-02-21T04:14:01.877Z,1.1
2018-02-21T04:14:42.423Z,1.17
2018-02-21T04:15:22.964Z,1.14
2018-02-21T04:16:03.525Z,1.13
2018-02-21T04:16:44.097Z,1.19
2018-02-21T04:17:24.629Z,1.06
2018-02-21T04:18:05.192Z,1.16
2018-02-21T04:18:45.747Z,1.08
2018-02-21T04:19:26.289Z,1.1
2018-02-21T04:20:06.840Z,1.13
2018-02-21T04:20:47.447Z,1.1
2018-02-21T04:21:28.096Z,1.1
2018-02-21T04:22:08.568Z,1.17
2018-02-21T04:22:49.104Z,1.12
2018-02-21T04:23:29.692Z,1.16
2018-02-21T04:24:10.259Z,1.19
2018-02-21T04:24:50.992Z,1.12
2018-02-21T04:25:31.410Z,1.16
2018-02-21T04:26:11.966Z,1.1
2018-02-21T04:26:52.502Z,1.1
2018-02-21T04:27:33.053Z,1.14
2018-02-21T04:28:13.601Z,1.1
2018-02-21T04:28:54.173Z,1.12
2018-02-21T04:29:34.740Z,1.08
2018-02-21T04:30:15.306Z,1.1
2018-02-21T04:30:55.855Z,1.17
2018-02-21T04:31:36.427Z,1.05
2018-02-21T04:32:17.014Z,1.05
2018-02-21T04:32:57.566Z,0.99
2018-02-21T04:33:38.113Z,1.13
2018-02-21T04:34:18.657Z,1.19
2018-02-21T04:34:59.208Z,1.16
2018-02-21T04:35:39.769Z,1.02
2018-02-21T04:36:20.314Z,1.14
2018-02-21T04:37:00.859Z,1.06
2018-02-21T04:37:41.412Z,1.16
2018-02-21T04:38:21.963Z,1.08
2018-02-21T04:39:02.499Z,1.12
2018-02-21T04:39:43.056Z,1.08
2018-02-21T04:40:23.613Z,1.08
2018-02-21T04:41:04.170Z,1.08
2018-02-21T04:41:44.744Z,1.1
2018-02-21T04:42:25.273Z,1.1
2018-02-21T04:43:05.819Z,1.01
2018-02-21T04:43:46.410Z,1.04
2018-02-21T04:44:26.945Z,0.99
2018-02-21T04:45:07.505Z,0.98
2018-02-21T04:45:48.103Z,0.99
2018-02-21T04:46:28.684Z,0.96
2018-02-21T04:47:09.231Z,1.04
2018-02-21T04:47:49.787Z,0.98
2018-02-21T04:48:30.340Z,0.99
2018-02-21T04:49:10.880Z,0.99
2018-02-21T04:49:51.451Z,0.94
2018-02-21T04:50:32.023Z,0.96
2018-02-21T04:51:12.598Z,0.98
2018-02-21T04:51:53.161Z,0.99
2018-02-21T04:52:33.737Z,0.99
2018-02-21T04:53:14.273Z,0.99
2018-02-21T04:53:54.843Z,1.04
2018-02-21T04:54:35.386Z,1.01
2018-02-21T04:55:15.946Z,0.99
2018-02-21T04:55:56.501Z,0.98
2018-02-21T04:56:37.086Z,1.04
2018-02-21T04:57:17.629Z,0.99
2018-02-21T04:57:58.201Z,0.96
2018-02-21T04:58:38.753Z,1.01
2018-02-21T04:59:19.367Z,0.98
2018-02-21T04:59:59.937Z,0.98
2018-02-21T05:00:40.561Z,0.95
2018-02-21T05:01:21.045Z,0.99
2018-02-21T05:02:01.606Z,0.95
2018-02-21T05:02:42.140Z,1.01
2018-02-21T05:03:22.733Z,0.99
2018-02-21T05:04:03.285Z,1.02
2018-02-21T05:04:43.841Z,0.96
2018-02-21T05:05:24.398Z,0.92
2018-02-21T05:06:04.974Z,0.94
2018-02-21T05:06:45.548Z,0.95
2018-02-21T05:07:26.168Z,0.92
2018-02-21T05:08:06.716Z,0.99
2018-02-21T05:08:47.268Z,0.98
2018-02-21T05:09:27.853Z,0.99
2018-02-21T05:10:08.453Z,0.99
2018-02-21T05:10:49.010Z,1.01
2018-02-21T05:11:29.583Z,1.01
2018-02-21T05:12:10.190Z,0.98
2018-02-21T05:12:50.719Z,0.96
2018-02-21T05:13:31.258Z,0.96
2018-02-21T05:14:11.809Z,0.94
2018-02-21T05:14:52.361Z,1.02
2018-02-21T05:15:32.901Z,0.95
2018-02-21T05:16:13.466Z,0.99
2018-02-21T05:16:53.998Z,1.01
2018-02-21T05:17:34.539Z,0.96
2018-02-21T05:18:15.132Z,0.94
2018-02-21T05:18:55.675Z,0.95
2018-02-21T05:19:36.232Z,0.99
2018-02-21T05:20:16.785Z,0.92
2018-02-21T05:20:57.331Z,0.88
2018-02-21T05:21:37.891Z,0.92
2018-02-21T05:22:18.430Z,0.95
2018-02-21T05:22:59.015Z,0.99
2018-02-21T05:23:39.580Z,0.94
2018-02-21T05:24:20.170Z,0.95
2018-02-21T05:25:00.737Z,0.94
2018-02-21T05:25:41.288Z,0.99
2018-02-21T05:26:21.837Z,0.91
2018-02-21T05:27:02.389Z,0.94
2018-02-21T05:27:42.934Z,0.96
2018-02-21T05:28:23.455Z,0.99
2018-02-21T05:29:04.014Z,0.98
2018-02-21T05:29:44.559Z,1.01
2018-02-21T05:30:25.139Z,0.96
2018-02-21T05:31:05.669Z,1.01
2018-02-21T05:31:46.236Z,1.02
2018-02-21T05:32:26.767Z,0.99
2018-02-21T05:33:07.314Z,1.04
2018-02-21T05:33:47.865Z,0.96
2018-02-21T05:34:28.420Z,1.02
2018-02-21T05:35:08.991Z,1.04
2018-02-21T05:35:49.552Z,0.98
2018-02-21T05:36:30.104Z,0.94
2018-02-21T05:37:10.651Z,0.95
2018-02-21T05:37:51.209Z,0.96
2018-02-21T05:38:31.744Z,0.94
2018-02-21T05:39:12.307Z,0.99
2018-02-21T05:39:52.832Z,0.98
2018-02-21T05:40:33.409Z,1.01
2018-02-21T05:41:13.969Z,0.92
2018-02-21T05:41:54.507Z,1.01
2018-02-21T05:42:35.085Z,0.95
2018-02-21T05:43:15.650Z,0.99
2018-02-21T05:43:56.244Z,1.02
2018-02-21T05:44:36.788Z,0.98
2018-02-21T05:45:17.359Z,0.99
2018-02-21T05:45:57.969Z,1.01
2018-02-21T05:46:38.686Z,1.04
2018-02-21T05:47:19.228Z,0.96
2018-02-21T05:47:59.768Z,1.02
2018-02-21T05:48:40.439Z,0.99
2018-02-21T05:49:21.000Z,0.95
2018-02-21T05:50:01.548Z,0.99
2018-02-21T05:50:42.107Z,0.94
2018-02-21T05:51:22.648Z,0.99
2018-02-21T05:52:03.197Z,0.95
2018-02-21T05:52:43.747Z,0.98
2018-02-21T05:53:24.288Z,0.91
2018-02-21T05:54:04.898Z,0.91
2018-02-21T05:54:45.427Z,0.91
2018-02-21T05:55:25.969Z,0.81
2018-02-21T05:56:06.536Z,0.87
2018-02-21T05:56:47.073Z,0.94
2018-02-21T05:57:27.634Z,0.95
2018-02-21T05:58:08.241Z,0.86
2018-02-21T05:58:48.802Z,0.91
2018-02-21T05:59:29.504Z,0.83
2018-02-21T06:00:10.106Z,0.94
2018-02-21T06:00:50.654Z,0.94
2018-02-21T06:01:31.220Z,0.92
2018-02-21T06:02:11.938Z,0.86
2018-02-21T06:02:52.425Z,0.91
2018-02-21T06:03:32.974Z,0.83
2018-02-21T06:04:13.599Z,0.81
2018-02-21T06:04:54.137Z,0.84
2018-02-21T06:05:34.691Z,0.84
2018-02-21T06:06:15.251Z,0.81
2018-02-21T06:06:55.825Z,0.83
2018-02-21T06:07:36.380Z,0.81
2018-02-21T06:08:16.937Z,0.8
2018-02-21T06:08:57.625Z,0.83
2018-02-21T06:09:38.202Z,0.81
2018-02-21T06:10:18.743Z,0.76
2018-02-21T06:11:00.737Z,0.74
2018-02-21T06:11:41.281Z,0.81
2018-02-21T06:12:21.830Z,0.76
2018-02-21T06:13:02.742Z,0.73
2018-02-21T06:13:43.973Z,0.77
2018-02-21T06:14:24.515Z,0.77
2018-02-21T06:15:05.079Z,0.74
2018-02-21T06:15:45.651Z,0.7
2018-02-21T06:16:26.186Z,0.74
2018-02-21T06:17:06.753Z,0.76
2018-02-21T06:17:47.311Z,0.68
2018-02-21T06:18:27.902Z,0.66
2018-02-21T06:19:08.473Z,0.74
2018-02-21T06:19:49.075Z,0.63
2018-02-21T06:20:29.628Z,0.69
2018-02-21T06:21:10.228Z,0.63
2018-02-21T06:21:50.776Z,0.7
2018-02-21T06:22:31.312Z,0.74
2018-02-21T06:23:11.838Z,0.69
2018-02-21T06:23:52.384Z,0.7
2018-02-21T06:24:32.944Z,0.76
2018-02-21T06:25:13.574Z,0.73
2018-02-21T06:25:54.208Z,0.73
2018-02-21T06:26:34.701Z,0.73
2018-02-21T06:27:15.245Z,0.68
2018-02-21T06:27:55.818Z,0.74
2018-02-21T06:28:36.354Z,0.68
2018-02-21T06:29:16.894Z,0.76
2018-02-21T06:29:57.443Z,0.78
2018-02-21T06:30:37.982Z,0.78
2018-02-21T06:31:18.536Z,0.73
2018-02-21T06:31:59.109Z,0.77
2018-02-21T06:32:39.667Z,0.8
2018-02-21T06:33:20.349Z,0.73
2018-02-21T06:34:00.980Z,0.8
2018-02-21T06:34:41.538Z,0.77
2018-02-21T06:35:22.075Z,0.78
2018-02-21T06:36:02.634Z,0.8
2018-02-21T06:36:43.167Z,0.8
2018-02-21T06:37:23.720Z,0.84
2018-02-21T06:38:04.275Z,0.8
2018-02-21T06:38:44.837Z,0.8
2018-02-21T06:39:25.386Z,0.78
2018-02-21T06:40:05.942Z,0.86
2018-02-21T06:40:46.491Z,0.8
2018-02-21T06:41:27.031Z,0.87
2018-02-21T06:42:07.655Z,0.84
2018-02-21T06:42:48.261Z,0.87
2018-02-21T06:43:28.841Z,0.87
2018-02-21T06:44:09.390Z,0.94
2018-02-21T06:44:50.086Z,0.94
2018-02-21T06:45:30.568Z,0.96
2018-02-21T06:46:11.179Z,0.98
2018-02-21T06:46:51.849Z,0.95
2018-02-21T06:47:32.425Z,1.02
2018-02-21T06:48:13.090Z,0.96
2018-02-21T06:48:53.642Z,0.96
2018-02-21T06:49:34.187Z,0.96
2018-02-21T06:50:14.738Z,0.99
2018-02-21T06:50:55.357Z,0.98
2018-02-21T06:51:36.098Z,0.98
2018-02-21T06:52:16.757Z,0.98
2018-02-21T06:52:57.316Z,0.99
2018-02-21T06:53:37.871Z,0.99
2018-02-21T06:54:18.424Z,1.02
2018-02-21T06:54:58.983Z,0.96
2018-02-21T06:55:39.526Z,1.04
2018-02-21T06:56:20.083Z,1.05
2018-02-21T06:57:00.839Z,1.06
2018-02-21T06:57:41.389Z,1.12
2018-02-21T06:58:21.952Z,1.06
2018-02-21T06:59:03.308Z,1.22
2018-02-21T06:59:43.854Z,1.19
2018-02-21T07:00:24.435Z,1.13
2018-02-21T07:01:04.983Z,1.22
2018-02-21T07:01:45.546Z,1.17
2018-02-21T07:02:26.089Z,1.2
2018-02-21T07:03:06.670Z,1.14
2018-02-21T07:03:47.219Z,1.24
2018-02-21T07:04:27.804Z,1.19
2018-02-21T07:05:08.351Z,1.24
2018-02-21T07:05:48.923Z,1.31
2018-02-21T07:06:29.727Z,1.28
2018-02-21T07:07:10.294Z,1.19
2018-02-21T07:07:50.897Z,1.24
2018-02-21T07:08:31.494Z,1.23
2018-02-21T07:09:11.984Z,1.23
2018-02-21T07:09:52.526Z,1.3
2018-02-21T07:10:33.093Z,1.32
2018-02-21T07:11:13.653Z,1.3
2018-02-21T07:11:54.259Z,1.28
2018-02-21T07:12:34.841Z,1.31
2018-02-21T07:13:16.288Z,1.32
2018-02-21T07:13:56.220Z,1.37
2018-02-21T07:14:36.895Z,1.31
2018-02-21T07:15:17.440Z,1.31
2018-02-21T07:15:57.998Z,1.31
2018-02-21T07:16:38.555Z,1.34
2018-02-21T07:17:19.120Z,1.32
2018-02-21T07:17:59.705Z,1.32
2018-02-21T07:18:40.328Z,1.26
2018-02-21T07:19:21.975Z,1.34
2018-02-21T07:20:02.704Z,1.24
2018-02-21T07:20:43.287Z,1.37
2018-02-21T07:21:23.844Z,1.3
2018-02-21T07:22:04.406Z,1.34
2018-02-21T07:22:44.974Z,1.31
2018-02-21T07:23:25.775Z,1.35
2018-02-21T07:24:06.939Z,1.24
2018-02-21T07:24:47.701Z,1.31
2018-02-21T07:25:28.648Z,1.31
2018-02-21T07:26:09.551Z,1.37
2018-02-21T07:26:50.304Z,1.31
2018-02-21T07:27:30.993Z,1.35
2018-02-21T07:28:11.568Z,1.32
2018-02-21T07:28:52.175Z,1.34
2018-02-21T07:29:33.141Z,1.35
2018-02-21T07:30:14.433Z,1.41
2018-02-21T07:30:55.030Z,1.44
2018-02-21T07:31:35.603Z,1.45
2018-02-21T07:32:16.596Z,1.41
2018-02-21T07:32:57.667Z,1.52
2018-02-21T07:33:38.532Z,1.48
2018-02-21T07:34:19.126Z,1.48
2018-02-21T07:34:59.706Z,1.5
2018-02-21T07:35:40.901Z,1.45
2018-02-21T07:36:23.190Z,1.49
2018-02-21T07:37:04.292Z,1.5
2018-02-21T07:37:44.873Z,1.45
2018-02-21T07:38:25.445Z,1.52
2018-02-21T07:39:06.020Z,1.62
2018-02-21T07:39:46.578Z,1.66
2018-02-21T07:40:27.135Z,1.58
2018-02-21T07:41:07.972Z,1.6
2018-02-21T07:41:50.361Z,1.67
2018-02-21T07:42:31.191Z,1.68
2018-02-21T07:43:12.042Z,1.76
2018-02-21T07:43:52.625Z,1.74
2018-02-21T07:44:34.376Z,1.73
2018-02-21T07:45:15.394Z,1.74
2018-02-21T07:45:56.693Z,1.7
2018-02-21T07:46:37.629Z,1.76
2018-02-21T07:47:18.787Z,1.77
2018-02-21T07:48:00.085Z,1.77
2018-02-21T07:48:42.146Z,1.8
2018-02-21T07:49:23.199Z,1.8
2018-02-21T07:50:03.961Z,1.81
2018-02-21T07:50:44.586Z,1.81
2018-02-21T07:51:25.219Z,1.88
2018-02-21T07:52:05.766Z,1.81
2018-02-21T07:52:46.321Z,1.8
2018-02-21T07:53:26.939Z,1.81
2018-02-21T07:54:07.459Z,1.81
2018-02-21T07:54:48.107Z,1.91
2018-02-21T07:55:28.700Z,1.91
2018-02-21T07:56:09.350Z,1.94
2018-02-21T07:56:52.078Z,1.92
2018-02-21T07:57:32.580Z,1.95
2018-02-21T07:58:13.689Z,1.92
2018-02-21T07:58:54.725Z,1.97
2018-02-21T07:59:35.953Z,2.02
2018-02-21T08:00:16.800Z,1.97
2018-02-21T08:00:57.986Z,2.04
2018-02-21T08:01:39.155Z,2.04
2018-02-21T08:02:19.736Z,1.97
2018-02-21T08:03:00.363Z,2.02
2018-02-21T08:03:41.639Z,2.07
2018-02-21T08:04:24.594Z,2.15
2018-02-21T08:05:06.352Z,2.07
2018-02-21T08:05:47.364Z,2.11
2018-02-21T08:06:28.411Z,2.1
2018-02-21T08:07:08.953Z,2.13
2018-02-21T08:07:49.497Z,2.08
2018-02-21T08:08:30.316Z,2.08
2018-02-21T08:09:11.261Z,2.14
2018-02-21T08:09:52.173Z,2.13
2018-02-21T08:10:32.967Z,2.14
2018-02-21T08:11:13.518Z,2.1
2018-02-21T08:11:54.095Z,2.14
2018-02-21T08:12:34.648Z,2.15
2018-02-21T08:13:15.254Z,2.25
2018-02-21T08:13:55.798Z,2.35
2018-02-21T08:14:36.395Z,2.5
2018-02-21T08:15:17.003Z,2.72
2018-02-21T08:15:57.574Z,2.92
2018-02-21T08:16:38.129Z,3.05
2018-02-21T08:17:18.771Z,3.44
2018-02-21T08:17:59.350Z,3.77
2018-02-21T08:18:39.897Z,4.06
2018-02-21T08:19:20.453Z,4.42
2018-02-21T08:20:01.061Z,4.6
2018-02-21T08:20:41.635Z,4.94
2018-02-21T08:21:22.359Z,5.3
2018-02-21T08:22:03.265Z,5.5
2018-02-21T08:22:44.087Z,5.79
2018-02-21T08:23:24.710Z,6.01
2018-02-21T08:24:05.647Z,6.36
2018-02-21T08:24:46.597Z,6.42
2018-02-21T08:25:27.416Z,6.72
2018-02-21T08:26:08.264Z,6.7
2018-02-21T08:26:51.080Z,6.87
2018-02-21T08:27:31.771Z,6.96
2018-02-21T08:28:12.639Z,7.15
2018-02-21T08:28:53.603Z,7.17
2018-02-21T08:29:34.337Z,7.33
2018-02-21T08:30:15.370Z,7.4
2018-02-21T08:30:56.027Z,7.66
2018-02-21T08:31:37.233Z,7.69
2018-02-21T08:32:17.933Z,7.9
2018-02-21T08:32:59.334Z,8.03
2018-02-21T08:33:40.949Z,8.13
2018-02-21T08:34:22.019Z,8.31
2018-02-21T08:35:02.824Z,8.33
2018-02-21T08:35:43.620Z,8.34
2018-02-21T08:36:24.992Z,8.44
2018-02-21T08:37:07.142Z,8.36
2018-02-21T08:37:48.110Z,8.37
2018-02-21T08:38:28.659Z,8.31
2018-02-21T08:39:09.549Z,8.33
2018-02-21T08:39:50.190Z,8.38
2018-02-21T08:40:31.032Z,8.44
2018-02-21T08:41:11.851Z,8.51
2018-02-21T08:41:52.453Z,8.56
2018-02-21T08:42:33.038Z,8.53
2018-02-21T08:43:14.413Z,8.52
2018-02-21T08:43:55.468Z,8.53
2018-02-21T08:44:36.325Z,8.58
2018-02-21T08:45:17.338Z,8.67
2018-02-21T08:45:58.021Z,8.74
2018-02-21T08:46:38.848Z,8.78
2018-02-21T08:47:19.599Z,8.95
2018-02-21T08:48:00.553Z,8.92
2018-02-21T08:48:41.423Z,8.99
2018-02-21T08:49:22.269Z,8.94
2018-02-21T08:50:03.001Z,8.94
2018-02-21T08:50:43.939Z,8.92
2018-02-21T08:51:24.841Z,8.92
2018-02-21T08:52:06.259Z,8.92
2018-02-21T08:52:46.923Z,8.91
2018-02-21T08:53:27.491Z,8.91
2018-02-21T08:54:08.046Z,8.88
2018-02-21T08:54:51.393Z,8.94
2018-02-21T08:55:32.546Z,8.95
2018-02-21T08:56:13.140Z,8.89
2018-02-21T08:56:53.779Z,8.94
2018-02-21T08:57:34.350Z,9.11
2018-02-21T08:58:15.203Z,9.23
2018-02-21T08:58:55.784Z,9.37
2018-02-21T08:59:36.345Z,9.37
2018-02-21T09:00:16.917Z,9.43
2018-02-21T09:00:57.864Z,9.37
2018-02-21T09:01:38.474Z,9.41
2018-02-21T09:02:19.053Z,9.34
2018-02-21T09:02:59.636Z,9.29